Time;durP1;ratioP1;P1;durP2;ratioP2;P2;SDS_P1;SDS_P2;PMS_P1;PMS_P2;Temp;Humidity;BMP_temperature;BMP_pressure;BME280_temperature;BME280_humidity;BME280_pressure;Samples;Min_cycle;Max_cycle;Signal;HPM_P1;HPM_P2
2024/01/16 06:34:13;;;;;;;14.07;4.63;;;;;;;-0.67;100.00;100743.81;3076816;27;20095;-71
2024/01/16 06:36:38;;;;;;;16.20;4.72;;;;;;;-0.72;100.00;100739.56;4826798;29;20042;-71
2024/01/16 06:39:03;;;;;;;18.33;5.43;;;;;;;-0.71;100.00;100743.91;4834044;29;20048;-71
2024/01/16 06:41:29;;;;;;;18.50;5.25;;;;;;;-0.71;100.00;100743.91;4832299;29;21026;-70
2024/01/16 06:43:54;;;;;;;19.27;5.25;;;;;;;-0.72;100.00;100747.47;4835986;29;20506;-71
2024/01/16 06:46:19;;;;;;;14.50;4.07;;;;;;;-0.72;100.00;100743.94;4833708;29;20108;-71
2024/01/16 06:48:45;;;;;;;18.13;5.55;;;;;;;-0.74;100.00;100746.63;4836545;29;20418;-71
2024/01/16 06:51:13;;;;;;;13.15;4.80;;;;;;;-0.76;100.00;100745.81;4822652;29;20053;-71
2024/01/16 06:53:39;;;;;;;16.67;4.72;;;;;;;-0.76;100.00;100748.47;4820613;29;20082;-70
2024/01/16 06:56:06;;;;;;;15.60;4.95;;;;;;;-0.75;100.00;100758.13;4836140;29;20120;-71
2024/01/16 06:58:31;;;;;;;14.57;4.63;;;;;;;-0.76;100.00;100759.03;4834550;29;20033;-73
2024/01/16 07:00:57;;;;;;;16.80;4.72;;;;;;;-0.77;100.00;100754.63;4835505;29;20022;-73
2024/01/16 07:03:22;;;;;;;15.20;4.85;;;;;;;-0.79;100.00;100750.31;4834442;29;20045;-73
2024/01/16 07:05:47;;;;;;;15.40;5.15;;;;;;;-0.78;100.00;100758.19;4835412;29;20033;-73
2024/01/16 07:08:13;;;;;;;13.88;4.95;;;;;;;-0.79;100.00;100764.38;4834589;29;20133;-73
2024/01/16 07:10:38;;;;;;;16.08;4.47;;;;;;;-0.81;100.00;100763.53;4827830;29;20087;-74
2024/01/16 07:13:03;;;;;;;14.23;4.75;;;;;;;-0.79;100.00;100766.13;4816698;29;20041;-74
2024/01/16 07:15:29;;;;;;;13.20;4.10;;;;;;;-0.79;100.00;100766.13;4837048;29;20049;-74
2024/01/16 07:17:54;;;;;;;18.83;5.18;;;;;;;-0.83;100.00;100775.94;4836310;29;20042;-73
2024/01/16 07:20:19;;;;;;;15.35;5.18;;;;;;;-0.84;100.00;100776.81;4821932;29;20343;-74
2024/01/16 07:22:45;;;;;;;17.33;5.03;;;;;;;-0.84;100.00;100776.81;4819901;29;20396;-73
2024/01/16 07:25:10;;;;;;;14.27;5.13;;;;;;;-0.84;100.00;100778.59;4837355;29;20514;-73
2024/01/16 07:27:36;;;;;;;14.50;4.50;;;;;;;-0.83;100.00;100775.06;4834188;29;20464;-73
2024/01/16 07:30:04;;;;;;;11.95;4.43;;;;;;;-0.84;100.00;100774.19;4825360;29;20060;-73
2024/01/16 07:32:29;;;;;;;18.08;5.15;;;;;;;-0.83;100.00;100769.78;4838112;29;20037;-74
2024/01/16 07:34:55;;;;;;;14.55;4.53;;;;;;;-0.83;100.00;100775.94;4838370;29;20048;-73
2024/01/16 07:37:20;;;;;;;17.02;5.32;;;;;;;-0.82;100.00;100767.13;4854823;29;20039;-73
2024/01/16 07:39:45;;;;;;;14.25;4.35;;;;;;;-0.83;100.00;100775.94;4846206;29;20512;-73
2024/01/16 07:42:11;;;;;;;17.15;4.53;;;;;;;-0.83;100.00;100775.94;4848080;29;20048;-73
2024/01/16 07:44:36;;;;;;;15.63;5.30;;;;;;;-0.80;100.00;100772.34;4851965;29;20213;-71
2024/01/16 07:47:01;;;;;;;17.15;5.03;;;;;;;-0.81;100.00;100768.81;4851579;29;20052;-72
2024/01/16 07:49:27;;;;;;;21.13;6.05;;;;;;;-0.81;100.00;100787.28;4833899;29;20167;-71
2024/01/16 07:51:52;;;;;;;16.27;4.57;;;;;;;-0.83;100.00;100783.00;4832534;29;20053;-71
2024/01/16 07:54:17;;;;;;;16.20;4.95;;;;;;;-0.81;100.00;100784.66;4831995;29;20047;-71
2024/01/16 07:56:43;;;;;;;15.55;4.50;;;;;;;-0.80;100.00;100791.66;4833996;29;20029;-74
2024/01/16 07:59:08;;;;;;;13.88;4.40;;;;;;;-0.80;100.00;100796.94;4833896;29;20033;-71
2024/01/16 08:01:33;;;;;;;16.42;5.28;;;;;;;-0.83;100.00;100799.66;4849984;29;20465;-74
2024/01/16 08:03:59;;;;;;;21.20;5.28;;;;;;;-0.82;100.00;100795.25;4838236;29;20026;-73
2024/01/16 08:06:24;;;;;;;17.90;4.78;;;;;;;-0.82;100.00;100804.06;4854185;29;20084;-72
2024/01/16 08:08:50;;;;;;;15.77;4.80;;;;;;;-0.78;100.00;100799.53;4832953;29;20167;-71
2024/01/16 08:11:16;;;;;;;13.70;4.35;;;;;;;-0.77;100.00;100796.00;4849630;29;20097;-71
2024/01/16 08:13:41;;;;;;;18.67;5.60;;;;;;;-0.74;100.00;100788.84;4850364;29;20037;-72
2024/01/16 08:16:07;;;;;;;14.88;4.20;;;;;;;-0.74;100.00;100783.56;4849866;29;20052;-72
2024/01/16 08:18:33;;;;;;;17.38;5.10;;;;;;;-0.73;100.00;100789.75;4836782;29;20537;-71
2024/01/16 08:20:59;;;;;;;20.25;5.30;;;;;;;-0.71;100.00;100796.69;4836387;29;20083;-71
2024/01/16 08:23:24;;;;;;;17.80;5.65;;;;;;;-0.68;100.00;100794.88;4837071;29;20025;-72
2024/01/16 08:25:52;;;;;;;23.08;5.57;;;;;;;-0.71;100.00;100791.41;4831658;29;20034;-71
2024/01/16 08:28:18;;;;;;;13.82;4.10;;;;;;;-0.68;100.00;100800.16;4851348;29;20084;-72
2024/01/16 08:30:43;;;;;;;15.40;4.97;;;;;;;-0.72;100.00;100804.66;4833647;29;20037;-72
2024/01/16 08:33:09;;;;;;;14.88;4.65;;;;;;;-0.70;100.00;100808.13;4839610;29;20487;-71
2024/01/16 08:35:34;;;;;;;17.05;4.90;;;;;;;-0.72;100.00;100813.44;4851008;29;20033;-71
2024/01/16 08:38:00;;;;;;;16.67;4.93;;;;;;;-0.72;100.00;100815.22;4832325;29;20030;-71
2024/01/16 08:40:25;;;;;;;17.17;5.47;;;;;;;-0.74;100.00;100809.13;4851180;29;20041;-73
2024/01/16 08:42:54;;;;;;;16.23;5.10;;;;;;;-0.72;100.00;100813.44;4850307;29;20034;-71
2024/01/16 08:45:22;;;;;;;14.70;4.78;;;;;;;-0.69;100.00;100808.97;4837726;29;20097;-71
2024/01/16 08:47:48;;;;;;;16.92;4.95;;;;;;;-0.69;100.00;100801.06;4849658;29;20044;-71
2024/01/16 08:50:14;;;;;;;14.48;4.05;;;;;;;-0.65;100.00;100814.13;4851141;29;20049;-71
2024/01/16 08:52:39;;;;;;;18.20;5.47;;;;;;;-0.67;100.00;100800.13;4851108;29;20057;-71
2024/01/16 08:55:05;;;;;;;12.52;3.80;;;;;;;-0.68;100.00;100803.66;4840795;29;20070;-72
2024/01/16 08:57:30;;;;;;;17.27;5.00;;;;;;;-0.63;100.00;100807.06;4841931;29;20029;-71
2024/01/16 08:59:56;;;;;;;22.80;6.28;;;;;;;-0.62;100.00;100808.75;4851742;29;20037;-71
2024/01/16 09:02:21;;;;;;;16.90;4.68;;;;;;;-0.60;100.00;100814.00;4849304;29;20021;-71
2024/01/16 09:04:50;;;;;;;19.77;5.55;;;;;;;-0.59;100.00;100805.19;4837114;29;20018;-71
2024/01/16 09:07:15;;;;;;;17.23;4.78;;;;;;;-0.58;100.00;100812.19;4838064;29;20042;-72
2024/01/16 09:09:42;;;;;;;14.55;5.10;;;;;;;-0.57;100.00;100800.72;4838548;29;20074;-71
2024/01/16 09:12:08;;;;;;;16.63;4.55;;;;;;;-0.54;100.00;100809.44;4836482;29;20042;-71
2024/01/16 09:14:33;;;;;;;19.13;5.20;;;;;;;-0.56;100.00;100811.25;4840168;29;20030;-73
2024/01/16 09:16:59;;;;;;;14.93;4.53;;;;;;;-0.54;100.00;100806.78;4838516;29;20037;-71
2024/01/16 09:19:24;;;;;;;23.55;5.70;;;;;;;-0.52;100.00;100804.09;4852417;29;20053;-71
2024/01/16 09:21:49;;;;;;;16.33;5.07;;;;;;;-0.52;100.00;100796.19;4851754;29;20048;-72
2024/01/16 09:24:14;;;;;;;11.10;3.83;;;;;;;-0.48;100.00;100792.56;4835328;29;20038;-71
2024/01/16 09:26:40;;;;;;;14.80;4.82;;;;;;;-0.48;100.00;100803.13;4851913;29;20468;-72
2024/01/16 09:29:05;;;;;;;18.27;5.63;;;;;;;-0.46;100.00;100806.56;4852097;29;20033;-72
2024/01/16 09:31:30;;;;;;;17.58;4.82;;;;;;;-0.41;100.00;100802.03;4852168;29;20132;-71
2024/01/16 09:33:56;;;;;;;17.15;4.88;;;;;;;-0.36;100.00;100794.81;4839956;29;20054;-72
2024/01/16 09:36:21;;;;;;;15.48;4.90;;;;;;;-0.28;100.00;100791.09;4832471;29;20051;-71
2024/01/16 09:38:46;;;;;;;15.02;5.07;;;;;;;-0.25;100.00;100791.91;4849697;29;20512;-71
2024/01/16 09:41:13;;;;;;;17.92;5.80;;;;;;;-0.25;100.00;100780.44;4851956;29;20052;-72
2024/01/16 09:43:39;;;;;;;20.85;5.40;;;;;;;-0.24;100.00;100784.81;4851544;29;20496;-72
2024/01/16 09:46:07;;;;;;;16.50;5.47;;;;;;;-0.22;100.00;100790.91;4856764;29;20377;-71
2024/01/16 09:48:32;;;;;;;17.73;5.78;;;;;;;-0.21;100.00;100790.00;4846900;29;20033;-71
2024/01/16 09:50:58;;;;;;;21.33;5.30;;;;;;;-0.19;100.00;100788.19;4836617;29;20404;-71
2024/01/16 09:53:23;;;;;;;21.45;5.13;;;;;;;-0.19;100.00;100782.91;4851853;29;20044;-72
2024/01/16 09:55:50;;;;;;;17.45;5.05;;;;;;;-0.19;100.00;100785.53;4853028;29;20036;-71
2024/01/16 09:58:19;;;;;;;18.65;6.13;;;;;;;-0.18;100.00;100789.91;4852579;29;20174;-72
2024/01/16 10:00:44;;;;;;;15.82;5.53;;;;;;;-0.19;100.00;100785.53;4855228;29;20482;-72
2024/01/16 10:03:13;;;;;;;18.48;5.35;;;;;;;-0.22;100.00;100780.34;4839804;29;20030;-72
2024/01/16 10:05:41;;;;;;;17.73;5.05;;;;;;;-0.25;100.00;100783.09;4841543;29;20026;-73
2024/01/16 10:08:07;;;;;;;19.80;5.43;;;;;;;-0.26;100.00;100781.38;4853401;29;20037;-73
2024/01/16 10:10:33;;;;;;;21.73;5.55;;;;;;;-0.27;100.00;100782.28;4854342;29;20030;-73
2024/01/16 10:12:59;;;;;;;18.38;5.57;;;;;;;-0.23;100.00;100778.66;4841017;29;20038;-73
2024/01/16 10:15:25;;;;;;;14.23;5.22;;;;;;;-0.17;100.00;100775.81;4840461;29;20037;-73
2024/01/16 10:17:50;;;;;;;18.20;6.13;;;;;;;-0.15;100.00;100767.84;4851596;29;20039;-73
2024/01/16 10:20:17;;;;;;;17.13;5.50;;;;;;;-0.15;100.00;100773.97;4854025;29;20056;-73
2024/01/16 10:22:53;;;;;;;17.08;5.93;;;;;;;-0.10;100.00;100772.06;4853489;29;20052;-73
2024/01/16 10:25:21;;;;;;;20.02;6.05;;;;;;;-0.07;100.00;100761.41;4854709;29;20569;-73
2024/01/16 10:27:46;;;;;;;18.60;5.82;;;;;;;-0.01;100.00;100760.38;4855216;29;20064;-73
2024/01/16 10:30:12;;;;;;;15.20;4.93;;;;;;;0.01;100.00;100758.53;4855310;29;20069;-73
2024/01/16 10:32:39;;;;;;;16.67;5.32;;;;;;;0.01;100.00;100753.25;4839534;29;20037;-73
2024/01/16 10:35:12;;;;;;;17.63;5.97;;;;;;;0.05;100.00;100748.75;4838758;29;20093;-73
2024/01/16 10:37:44;;;;;;;17.15;5.28;;;;;;;0.06;100.00;100739.88;4836372;29;20083;-73
2024/01/16 10:40:10;;;;;;;17.83;5.97;;;;;;;0.08;100.00;100746.84;4840778;29;20037;-73
2024/01/16 10:42:37;;;;;;;16.98;5.93;;;;;;;0.09;100.00;100740.66;4851279;29;20044;-73
2024/01/16 10:45:03;;;;;;;19.17;6.05;;;;;;;0.14;100.00;100745.81;4851484;29;20095;-73
2024/01/16 10:47:29;;;;;;;14.88;5.30;;;;;;;0.14;100.00;100743.16;4836258;29;20128;-73
2024/01/16 10:49:54;;;;;;;15.70;5.55;;;;;;;0.19;100.00;100749.19;4848882;29;20091;-73
2024/01/16 10:52:23;;;;;;;15.82;5.10;;;;;;;0.23;100.00;100742.84;4854211;29;20081;-73
2024/01/16 10:54:50;;;;;;;20.75;6.90;;;;;;;0.27;100.00;100743.63;4850086;29;20033;-73
2024/01/16 10:57:17;;;;;;;16.80;5.70;;;;;;;0.26;100.00;100734.81;4853500;29;20141;-73
2024/01/16 10:59:53;;;;;;;17.70;6.10;;;;;;;0.27;100.00;100738.34;4855178;29;20036;-73
2024/01/16 11:02:23;;;;;;;20.48;7.13;;;;;;;0.27;100.00;100733.91;4855702;29;23047;-73
2024/01/16 11:04:50;;;;;;;18.48;5.45;;;;;;;0.30;100.00;100723.25;4853579;29;20040;-73
2024/01/16 11:07:17;;;;;;;17.45;5.05;;;;;;;0.33;100.00;100722.28;4845929;29;20477;-73
2024/01/16 11:09:43;;;;;;;19.27;6.30;;;;;;;0.36;100.00;100731.91;4842532;29;20044;-73
2024/01/16 11:12:11;;;;;;;18.33;6.45;;;;;;;0.35;100.00;100731.00;4838211;29;20089;-73
2024/01/16 11:14:37;;;;;;;19.77;6.47;;;;;;;0.35;100.00;100723.09;4836594;29;20097;-76
2024/01/16 11:17:03;;;;;;;15.60;5.28;;;;;;;0.37;100.00;100716.00;4852813;29;20033;-76
2024/01/16 11:19:31;;;;;;;20.35;5.65;;;;;;;0.43;100.00;100722.84;4842732;29;20124;-76
2024/01/16 11:21:58;;;;;;;15.57;5.38;;;;;;;0.44;99.78;100719.28;4849772;29;20029;-76
2024/01/16 11:24:24;;;;;;;18.15;6.65;;;;;;;0.46;100.00;100714.81;4849928;29;20305;-76
2024/01/16 11:26:49;;;;;;;16.90;5.50;;;;;;;0.50;100.00;100711.16;4854596;29;20537;-76
2024/01/16 11:29:27;;;;;;;20.80;6.57;;;;;;;0.55;100.00;100717.13;4851634;29;20041;-76
2024/01/16 11:31:52;;;;;;;20.20;7.00;;;;;;;0.60;100.00;100725.78;4850884;29;20101;-77
2024/01/16 11:34:40;;;;;;;22.88;5.45;;;;;;;0.64;100.00;100729.19;4851240;29;20042;-75
2024/01/16 11:37:12;;;;;;;17.23;5.55;;;;;;;0.63;100.00;100720.41;4851792;29;20057;-76
2024/01/16 11:39:38;;;;;;;19.85;5.93;;;;;;;0.66;100.00;100716.78;4851337;29;20060;-76
2024/01/16 11:42:03;;;;;;;25.02;9.82;;;;;;;0.72;100.00;100718.34;4834692;29;20070;-76
2024/01/16 11:45:01;;;;;;;20.05;7.45;;;;;;;0.78;100.00;100718.16;4851641;29;20116;-77
2024/01/16 11:47:29;;;;;;;26.05;8.68;;;;;;;0.72;99.78;100718.34;4811299;29;20041;-76
2024/01/16 11:50:12;;;;;;;25.42;8.73;;;;;;;0.73;98.99;100715.63;4851536;29;20401;-76
2024/01/16 11:52:42;;;;;;;30.88;14.32;;;;;;;0.73;99.00;100717.44;4848875;29;20497;-76
2024/01/16 11:55:28;;;;;;;23.02;9.50;;;;;;;0.79;100.00;100714.56;4834217;29;20025;-76
2024/01/16 11:58:05;;;;;;;21.48;7.07;;;;;;;0.80;100.00;100706.56;4844635;29;20092;-76
2024/01/16 12:00:35;;;;;;;18.10;5.43;;;;;;;0.80;97.44;100706.56;4836082;29;20654;-76
2024/01/16 12:03:04;;;;;;;16.10;5.60;;;;;;;0.82;98.12;100699.47;4851205;29;20021;-76
2024/01/16 12:05:29;;;;;;;17.57;5.53;;;;;;;0.85;98.35;100693.22;4845591;29;20030;-75
2024/01/16 12:07:55;;;;;;;15.60;4.85;;;;;;;0.86;98.59;100692.28;4839409;29;20037;-77
2024/01/16 12:10:22;;;;;;;13.00;4.50;;;;;;;0.87;97.82;100692.22;4851039;29;20344;-75
2024/01/16 12:12:48;;;;;;;15.57;5.03;;;;;;;0.87;97.32;100688.72;4850966;29;20125;-76
2024/01/16 12:15:18;;;;;;;16.67;4.68;;;;;;;0.90;97.52;100693.03;4850692;29;20255;-76
2024/01/16 12:17:53;;;;;;;;;;;;;;;0.97;100.00;100681.31;4844918;29;20057;-76
2024/01/16 12:20:19;;;;;;;11.50;4.10;;;;;;;0.94;96.01;100681.41;4849238;29;19999;-76
2024/01/16 12:22:45;;;;;;;15.23;4.97;;;;;;;0.94;96.28;100677.00;4849460;29;20471;-76
2024/01/16 12:25:11;;;;;;;14.98;4.90;;;;;;;0.95;96.95;100665.50;4847887;29;20112;-71
2024/01/16 12:27:37;;;;;;;20.00;6.45;;;;;;;0.97;96.52;100666.28;4849046;29;20426;-72
2024/01/16 12:30:09;;;;;;;18.23;5.30;;;;;;;0.97;96.04;100660.16;4849750;29;20045;-71
2024/01/16 12:32:35;;;;;;;14.90;4.93;;;;;;;1.01;96.70;100657.34;4851958;29;20029;-71
2024/01/16 12:35:00;;;;;;;13.93;4.65;;;;;;;1.05;96.33;100660.72;4834806;29;20084;-71
2024/01/16 12:37:25;;;;;;;16.35;5.32;;;;;;;1.06;96.02;100657.16;4838251;29;20469;-71
2024/01/16 12:39:52;;;;;;;16.52;4.93;;;;;;;1.08;94.90;100657.09;4850972;29;20033;-71
2024/01/16 12:42:18;;;;;;;16.85;5.68;;;;;;;1.09;95.19;100661.47;4851430;29;20029;-71
2024/01/16 12:44:43;;;;;;;13.57;4.10;;;;;;;1.10;93.45;100649.94;4840116;29;20535;-72
2024/01/16 12:47:09;;;;;;;15.35;4.40;;;;;;;1.11;92.14;100649.03;4833335;29;20029;-70
2024/01/16 12:49:45;;;;;;;13.43;4.63;;;;;;;1.13;92.62;100655.13;4833699;29;20517;-71
2024/01/16 12:52:21;;;;;;;19.42;5.60;;;;;;;1.15;93.23;100651.50;4852050;29;20401;-71
2024/01/16 12:54:49;;;;;;;18.48;5.78;;;;;;;1.13;91.81;100650.72;4846595;29;20588;-71
2024/01/16 12:57:19;;;;;;;16.50;5.07;;;;;;;1.17;92.12;100656.75;4833024;29;20034;-71
2024/01/16 12:59:45;;;;;;;20.55;5.00;;;;;;;1.16;92.42;100649.75;4833286;29;20045;-70
2024/01/16 13:02:20;;;;;;;23.02;8.52;;;;;;;1.21;91.37;100645.13;4845613;29;20117;-71
2024/01/16 13:04:46;;;;;;;22.95;5.18;;;;;;;1.24;90.52;100633.56;4827325;29;20026;-70
2024/01/16 13:07:16;;;;;;;23.73;5.10;;;;;;;1.31;90.80;100632.41;4831136;29;20038;-70
2024/01/16 13:09:42;;;;;;;;;;;;;;;1.39;95.06;100636.50;4839990;29;20066;-73
2024/01/16 13:12:07;;;;;;;19.42;6.28;;;;;;;1.40;92.01;100634.69;4849458;29;20404;-71
2024/01/16 13:14:34;;;;;;;18.55;5.82;;;;;;;1.41;91.10;100633.78;4829760;29;20069;-71
2024/01/16 13:17:01;;;;;;;14.77;4.35;;;;;;;1.38;89.91;100628.59;4852500;29;20034;-71
2024/01/16 13:19:26;;;;;;;16.05;4.43;;;;;;;1.37;90.20;100625.06;4849931;29;20109;-70
2024/01/16 13:21:53;;;;;;;15.10;5.22;;;;;;;1.36;90.69;100620.72;4837066;29;20407;-72
2024/01/16 13:24:21;;;;;;;24.52;7.25;;;;;;;1.37;90.60;100622.44;4851244;29;20161;-72
2024/01/16 13:26:46;;;;;;;22.08;5.72;;;;;;;1.37;90.22;100622.44;4849247;29;20485;-71
2024/01/16 13:29:12;;;;;;;25.17;10.00;;;;;;;1.37;89.99;100626.88;4833718;29;20084;-72
2024/01/16 13:31:38;;;;;;;19.45;6.93;;;;;;;1.37;91.58;100630.38;4849637;29;20053;-72
2024/01/16 13:34:04;;;;;;;17.95;6.43;;;;;;;1.35;90.95;100626.94;4835883;29;20049;-70
2024/01/16 13:36:29;;;;;;;21.52;7.82;;;;;;;1.35;90.94;100629.59;4857997;29;20033;-75
2024/01/16 13:38:55;;;;;;;23.73;8.43;;;;;;;1.35;89.92;100626.94;4855554;29;22084;-74
2024/01/16 13:41:21;;;;;;;24.02;6.40;;;;;;;1.34;91.83;100622.56;4853946;29;20026;-73
2024/01/16 13:43:49;;;;;;;27.10;9.52;;;;;;;1.34;90.90;100617.25;4844709;29;20024;-74
2024/01/16 13:46:14;;;;;;;26.50;9.13;;;;;;;1.32;89.70;100612.97;4859184;29;20116;-75
2024/01/16 13:48:40;;;;;;;18.88;5.80;;;;;;;1.35;91.07;100616.34;4845731;29;20066;-75
2024/01/16 13:51:07;;;;;;;20.10;6.95;;;;;;;1.35;90.86;100603.09;4858082;29;20033;-75
2024/01/16 13:53:34;;;;;;;18.55;6.28;;;;;;;1.36;90.88;100609.25;4848688;29;20029;-74
2024/01/16 13:56:00;;;;;;;17.33;6.50;;;;;;;1.33;90.84;100599.66;4858763;29;20512;-75
2024/01/16 13:58:26;;;;;;;19.52;6.32;;;;;;;1.30;90.97;100601.56;4847930;29;20065;-74
2024/01/16 14:00:51;;;;;;;22.38;6.38;;;;;;;1.31;90.67;100595.34;4857434;29;20120;-73
2024/01/16 14:03:17;;;;;;;22.30;6.78;;;;;;;1.34;91.46;100596.06;4865901;29;20072;-74
2024/01/16 14:05:43;;;;;;;20.63;6.55;;;;;;;1.37;92.12;100590.66;4860681;29;20093;-74
2024/01/16 14:08:11;;;;;;;18.23;5.60;;;;;;;1.39;90.68;100595.88;4861921;29;20089;-74
2024/01/16 14:10:37;;;;;;;20.40;6.70;;;;;;;1.34;90.33;100588.13;4859141;29;20576;-74
2024/01/16 14:13:04;;;;;;;22.05;7.60;;;;;;;1.30;90.13;100583.88;4846682;29;20033;-74
2024/01/16 14:15:30;;;;;;;18.45;5.95;;;;;;;1.24;90.72;100589.41;4863868;29;20033;-75
2024/01/16 14:17:56;;;;;;;23.33;7.68;;;;;;;1.22;91.67;100596.56;4857691;29;20037;-73
2024/01/16 14:20:23;;;;;;;22.65;6.35;;;;;;;1.21;90.98;100589.53;4842425;29;20493;-73
2024/01/16 14:22:56;;;;;;;31.48;10.13;;;;;;;1.23;91.57;100587.72;4844978;29;20040;-74
2024/01/16 14:25:22;;;;;;;22.95;7.97;;;;;;;1.21;90.30;100579.78;4857781;29;20950;-74
2024/01/16 14:27:59;;;;;;;21.35;6.35;;;;;;;1.22;90.59;100576.22;4847575;29;20039;-73
2024/01/16 14:30:25;;;;;;;16.10;6.07;;;;;;;1.23;90.61;100577.13;4860952;29;20021;-73
2024/01/16 14:32:51;;;;;;;18.98;7.38;;;;;;;1.24;90.92;100573.53;4860601;29;20026;-74
2024/01/16 14:35:17;;;;;;;18.50;5.80;;;;;;;1.26;90.71;100570.81;4849409;29;20049;-74
2024/01/16 14:37:43;;;;;;;18.58;6.22;;;;;;;1.25;90.47;100569.97;4836339;29;20184;-74
2024/01/16 14:40:29;;;;;;;16.63;5.30;;;;;;;1.21;89.37;100563.91;4840299;29;20037;-74
2024/01/16 14:42:59;;;;;;;17.00;5.90;;;;;;;1.13;89.34;100560.72;4859028;29;20045;-75
2024/01/16 14:45:26;;;;;;;19.90;5.68;;;;;;;1.07;89.43;100557.44;4853795;29;20286;-76
2024/01/16 14:47:53;;;;;;;15.23;4.97;;;;;;;1.05;90.64;100562.78;4857694;29;20033;-75
2024/01/16 14:50:19;;;;;;;21.73;6.45;;;;;;;1.01;89.03;100547.94;4850398;29;20355;-76
2024/01/16 14:52:45;;;;;;;19.52;6.25;;;;;;;1.00;89.52;100555.03;4832634;29;20039;-76
2024/01/16 14:55:13;;;;;;;16.02;4.97;;;;;;;0.98;89.83;100548.06;4832646;29;20048;-76
2024/01/16 14:57:41;;;;;;;16.30;5.07;;;;;;;0.96;89.38;100537.53;4850963;29;20029;-76
2024/01/16 15:00:19;;;;;;;19.52;6.50;;;;;;;0.96;89.85;100544.63;4838396;29;20919;-75
2024/01/16 15:02:47;;;;;;;21.52;5.93;;;;;;;0.93;89.21;100542.97;4839365;29;20014;-75
2024/01/16 15:05:14;;;;;;;15.70;5.10;;;;;;;0.91;89.65;100539.53;4850260;29;20071;-75
2024/01/16 15:07:40;;;;;;;20.00;7.43;;;;;;;0.88;89.53;100534.34;4851797;29;20052;-75
2024/01/16 15:10:09;;;;;;;14.13;4.93;;;;;;;0.86;89.59;100542.34;4835911;29;20038;-75
2024/01/16 15:12:35;;;;;;;18.80;5.82;;;;;;;0.85;90.01;100545.06;4854658;29;20034;-76
2024/01/16 15:15:00;;;;;;;19.52;5.65;;;;;;;0.83;90.26;100541.59;4833895;29;20044;-76
2024/01/16 15:17:28;;;;;;;15.23;5.75;;;;;;;0.77;89.89;100537.38;4856232;29;20100;-76
2024/01/16 15:19:53;;;;;;;19.17;6.53;;;;;;;0.73;90.06;100546.34;4855817;29;20021;-75
2024/01/16 15:22:19;;;;;;;17.70;5.55;;;;;;;0.70;89.39;100543.81;4857530;29;20501;-75
2024/01/16 15:24:46;;;;;;;16.45;5.70;;;;;;;0.68;89.87;100543.03;4833768;29;20161;-76
2024/01/16 15:27:11;;;;;;;18.17;6.32;;;;;;;0.63;89.99;100540.56;4846685;29;20037;-75
2024/01/16 15:29:37;;;;;;;16.10;5.55;;;;;;;0.60;90.32;100538.03;4845943;29;20685;-76
2024/01/16 15:32:02;;;;;;;22.50;6.80;;;;;;;0.58;90.64;100531.06;4855664;29;20072;-76
2024/01/16 15:34:28;;;;;;;18.92;5.68;;;;;;;0.53;90.58;100528.59;4851391;29;20124;-73
2024/01/16 15:36:53;;;;;;;15.75;5.20;;;;;;;0.50;90.45;100532.22;4835670;29;20069;-73
2024/01/16 15:39:19;;;;;;;20.10;6.20;;;;;;;0.46;90.96;100533.22;4852559;29;20173;-73
2024/01/16 15:41:45;;;;;;;13.43;5.28;;;;;;;0.44;91.29;100540.38;4848291;29;20402;-75
2024/01/16 15:44:10;;;;;;;19.15;6.03;;;;;;;0.41;91.69;100542.25;4849329;29;20394;-75
2024/01/16 15:47:02;;;;;;;30.33;14.40;;;;;;;0.40;92.19;100544.03;4846175;29;20089;-76
2024/01/16 15:49:29;;;;;;;18.02;7.10;;;;;;;0.31;92.30;100553.16;4835861;29;20509;-76
2024/01/16 15:51:54;;;;;;;17.98;5.97;;;;;;;0.25;92.44;100548.09;4852744;29;20029;-76
2024/01/16 15:54:21;;;;;;;20.45;6.38;;;;;;;0.22;91.93;100555.25;4836697;29;20029;-73
2024/01/16 15:56:46;;;;;;;17.77;6.15;;;;;;;0.19;92.69;100550.97;4850613;29;20049;-73
2024/01/16 15:59:13;;;;;;;18.52;5.63;;;;;;;0.15;92.29;100549.34;4851912;29;20557;-73
2024/01/16 16:01:39;;;;;;;16.77;6.30;;;;;;;0.09;92.51;100550.41;4850165;29;20029;-73
2024/01/16 16:04:05;;;;;;;17.02;5.40;;;;;;;0.06;92.42;100553.16;4854502;29;20082;-73
2024/01/16 16:06:38;;;;;;;17.13;5.20;;;;;;;0.06;93.06;100557.56;4834935;29;20033;-73
2024/01/16 16:09:06;;;;;;;17.05;5.75;;;;;;;0.02;93.72;100566.53;4836225;29;20443;-73
2024/01/16 16:11:41;;;;;;;19.17;5.60;;;;;;;-0.03;93.28;100567.56;4852128;29;20405;-73
2024/01/16 16:14:07;;;;;;;18.05;6.03;;;;;;;-0.06;93.31;100558.84;4852234;29;20039;-73
2024/01/16 16:16:32;;;;;;;18.48;6.07;;;;;;;-0.07;93.38;100565.06;4838951;29;20034;-73
2024/01/16 16:18:58;;;;;;;15.38;5.13;;;;;;;-0.11;93.56;100568.72;4851268;29;20033;-73
2024/01/16 16:21:24;;;;;;;16.70;5.50;;;;;;;-0.11;93.21;100574.00;4835695;29;20568;-73
2024/01/16 16:23:49;;;;;;;14.05;4.63;;;;;;;-0.13;93.24;100574.06;4839404;29;20128;-73
2024/01/16 16:26:32;;;;;;;15.85;5.53;;;;;;;-0.13;93.32;100568.78;4849157;29;20519;-73
2024/01/16 16:29:02;;;;;;;17.35;4.93;;;;;;;-0.20;93.27;100580.47;4837382;29;20033;-74
2024/01/16 16:31:30;;;;;;;16.15;4.85;;;;;;;-0.23;93.01;100570.00;4849075;29;20045;-73
2024/01/16 16:33:59;;;;;;;18.88;5.53;;;;;;;-0.25;93.35;100569.16;4836360;29;20533;-73
2024/01/16 16:36:25;;;;;;;18.30;5.85;;;;;;;-0.24;93.14;100568.25;4849626;29;20037;-73
2024/01/16 16:38:50;;;;;;;15.50;5.22;;;;;;;-0.27;92.56;100565.72;4846183;29;20041;-74
2024/01/16 16:41:17;;;;;;;15.93;5.50;;;;;;;-0.30;92.97;100563.19;4848565;29;20550;-74
2024/01/16 16:43:43;;;;;;;15.18;4.78;;;;;;;-0.32;93.48;100563.25;4832911;29;20036;-73
2024/01/16 16:46:08;;;;;;;15.15;4.30;;;;;;;-0.31;92.90;100561.44;4848711;29;20033;-74
2024/01/16 16:48:34;;;;;;;16.27;5.45;;;;;;;-0.32;93.35;100554.44;4832494;29;20481;-74
2024/01/16 16:50:59;;;;;;;16.85;5.30;;;;;;;-0.33;92.98;100550.94;4849400;29;20651;-73
2024/01/16 16:53:24;;;;;;;16.90;5.65;;;;;;;-0.34;93.00;100551.00;4837859;29;20038;-73
2024/01/16 16:55:50;;;;;;;18.65;5.40;;;;;;;-0.37;93.21;100546.66;4852757;29;20132;-73
2024/01/16 16:58:15;;;;;;;15.35;4.43;;;;;;;-0.40;92.69;100555.53;4834290;29;20071;-74
2024/01/16 17:00:40;;;;;;;16.67;5.97;;;;;;;-0.43;93.75;100552.16;4851433;29;20174;-73
2024/01/16 17:03:06;;;;;;;21.35;7.25;;;;;;;-0.45;93.64;100554.84;4850091;29;20108;-74
2024/01/16 17:05:31;;;;;;;33.28;16.95;;;;;;;-0.45;93.69;100552.22;4851363;29;20045;-76
2024/01/16 17:07:56;;;;;;;30.70;12.95;;;;;;;-0.48;93.36;100549.66;4840736;29;20066;-76
2024/01/16 17:10:22;;;;;;;22.05;8.95;;;;;;;-0.52;93.74;100553.31;4830493;29;20034;-76
2024/01/16 17:12:48;;;;;;;27.02;9.02;;;;;;;-0.55;93.88;100554.28;4832293;29;20041;-76
2024/01/16 17:15:14;;;;;;;24.50;6.68;;;;;;;-0.57;93.75;100553.47;4847269;29;20558;-76
2024/01/16 17:17:40;;;;;;;19.10;6.78;;;;;;;-0.59;93.76;100552.63;4852978;29;20038;-76
2024/01/16 17:20:12;;;;;;;22.02;7.38;;;;;;;-0.60;93.58;100547.41;4851038;29;20478;-76
2024/01/16 17:22:37;;;;;;;19.38;6.78;;;;;;;-0.60;94.15;100543.00;4849490;29;20073;-76
2024/01/16 17:25:03;;;;;;;13.32;5.40;;;;;;;-0.60;93.30;100524.53;4840726;29;20128;-76
2024/01/16 17:27:28;;;;;;;17.60;6.05;;;;;;;-0.63;93.87;100524.63;4850457;29;20048;-76
2024/01/16 17:29:53;;;;;;;19.38;8.30;;;;;;;-0.64;93.54;100520.25;4854107;29;20069;-77
2024/01/16 17:32:19;;;;;;;19.10;7.75;;;;;;;-0.67;93.19;100524.75;4854062;29;20053;-76
2024/01/16 17:34:46;;;;;;;24.10;8.65;;;;;;;-0.69;94.12;100516.91;4852943;29;20049;-76
2024/01/16 17:37:12;;;;;;;18.88;7.60;;;;;;;-0.70;94.10;100515.19;4847075;29;20040;-76
2024/01/16 17:39:38;;;;;;;19.98;6.78;;;;;;;-0.70;93.85;100507.28;4839803;29;20065;-77
2024/01/16 17:42:03;;;;;;;22.33;6.47;;;;;;;-0.72;94.03;100504.69;4845239;29;20052;-77
2024/01/16 17:44:30;;;;;;;27.13;6.72;;;;;;;-0.73;94.02;100507.38;4850699;29;20500;-76
2024/01/16 17:46:56;;;;;;;16.88;5.50;;;;;;;-0.75;93.71;100504.78;4853749;29;20033;-77
2024/01/16 17:49:21;;;;;;;18.33;6.50;;;;;;;-0.77;93.62;100500.47;4849872;29;20102;-77